createdAt,value
2022-11-26T00:02:24.500Z,3.10
2022-11-26T00:04:55.038Z,3.67
2022-11-26T00:07:26.512Z,4.33
2022-11-26T00:09:55.569Z,3.60
2022-11-26T00:12:25.956Z,2.93
2022-11-26T00:14:54.360Z,3.27
2022-11-26T00:17:23.832Z,3.37
2022-11-26T00:19:51.760Z,2.87
2022-11-26T00:22:25.917Z,3.17
2022-11-26T00:24:54.726Z,2.90
2022-11-26T00:27:25.614Z,2.10
2022-11-26T00:29:53.890Z,2.53
2022-11-26T00:32:25.817Z,2.70
2022-11-26T00:34:53.917Z,2.47
2022-11-26T00:37:23.893Z,2.50
2022-11-26T00:39:52.504Z,3.47
2022-11-26T00:42:20.808Z,3.07
2022-11-26T00:44:48.956Z,3.57
2022-11-26T00:47:16.810Z,2.50
2022-11-26T00:49:46.020Z,3.53
2022-11-26T00:52:25.719Z,2.80
2022-11-26T00:54:53.681Z,3.03
2022-11-26T00:57:21.680Z,2.93
2022-11-26T00:59:49.575Z,2.73
2022-11-26T01:02:17.518Z,2.83
2022-11-26T01:04:46.756Z,3.10
2022-11-26T01:07:14.627Z,2.47
2022-11-26T01:09:45.160Z,2.50
2022-11-26T01:12:14.993Z,2.87
2022-11-26T01:14:42.933Z,2.47
2022-11-26T01:17:12.884Z,2.53
2022-11-26T01:19:40.872Z,2.50
2022-11-26T01:22:19.995Z,2.47
2022-11-26T01:24:48.120Z,2.67
2022-11-26T01:27:16.132Z,2.40
2022-11-26T01:29:43.991Z,3.53
2022-11-26T01:32:12.266Z,2.43
2022-11-26T01:34:40.470Z,3.43
2022-11-26T01:37:14.214Z,3.20
2022-11-26T01:39:42.112Z,2.83
2022-11-26T01:42:23.052Z,2.80
2022-11-26T01:44:50.940Z,2.50
2022-11-26T01:47:22.530Z,2.40
2022-11-26T01:50:28.002Z,2.33
2022-11-26T01:53:00.593Z,2.17
2022-11-26T01:55:33.299Z,2.00
2022-11-26T01:58:01.508Z,2.60
2022-11-26T02:00:29.489Z,2.60
2022-11-26T02:02:57.564Z,2.43
2022-11-26T02:05:28.164Z,2.43
2022-11-26T02:07:58.695Z,2.40
2022-11-26T02:10:26.667Z,2.17
2022-11-26T02:12:54.791Z,2.00
2022-11-26T02:15:28.833Z,2.53
2022-11-26T02:18:02.154Z,2.03
2022-11-26T02:20:52.425Z,2.20
2022-11-26T02:23:59.216Z,2.23
2022-11-26T02:26:56.000Z,1.90
2022-11-26T02:29:31.451Z,2.40
2022-11-26T02:32:06.901Z,2.17
2022-11-26T02:34:42.100Z,2.40
2022-11-26T02:37:15.352Z,2.17
2022-11-26T02:39:43.363Z,2.67
2022-11-26T02:42:25.897Z,2.40
2022-11-26T02:44:55.561Z,2.27
2022-11-26T02:47:27.896Z,2.23
2022-11-26T02:49:57.122Z,1.90
2022-11-26T02:52:27.858Z,2.27
2022-11-26T02:54:56.750Z,2.37
2022-11-26T02:57:28.059Z,2.10
2022-11-26T02:59:56.151Z,2.27
2022-11-26T03:02:32.090Z,2.73
2022-11-26T03:05:02.539Z,2.57
2022-11-26T03:07:32.868Z,2.53
2022-11-26T03:10:02.619Z,2.30
2022-11-26T03:12:31.015Z,2.10
2022-11-26T03:14:58.884Z,2.17
2022-11-26T03:17:28.125Z,2.60
2022-11-26T03:19:56.091Z,2.40
2022-11-26T03:22:23.955Z,2.30
2022-11-26T03:24:52.266Z,2.23
2022-11-26T03:27:20.177Z,3.00
2022-11-26T03:29:48.025Z,2.27
2022-11-26T03:32:15.881Z,2.20
2022-11-26T03:34:45.168Z,2.33
2022-11-26T03:37:13.626Z,2.60
2022-11-26T03:39:41.799Z,2.37
2022-11-26T03:42:09.657Z,2.60
2022-11-26T03:44:38.072Z,2.53
2022-11-26T03:47:06.263Z,2.03
2022-11-26T03:49:34.451Z,2.10
2022-11-26T03:52:03.962Z,1.83
2022-11-26T03:54:31.808Z,2.03
2022-11-26T03:56:59.645Z,2.40
2022-11-26T03:59:27.532Z,2.20
2022-11-26T04:01:55.593Z,2.63
2022-11-26T04:04:23.522Z,2.30
2022-11-26T04:06:51.384Z,2.40
2022-11-26T04:09:20.660Z,2.07
2022-11-26T04:11:48.504Z,1.93
2022-11-26T04:14:16.416Z,2.33
2022-11-26T04:16:44.307Z,2.27
2022-11-26T04:19:12.266Z,2.13
2022-11-26T04:21:40.123Z,2.43
2022-11-26T04:24:08.757Z,1.77
2022-11-26T04:26:38.057Z,2.10
2022-11-26T04:29:05.996Z,2.20
2022-11-26T04:31:33.951Z,1.90
2022-11-26T04:34:01.848Z,2.30
2022-11-26T04:36:29.733Z,2.47
2022-11-26T04:38:58.366Z,2.07
2022-11-26T04:41:26.254Z,2.00
2022-11-26T04:43:55.456Z,2.10
2022-11-26T04:46:23.323Z,1.93
2022-11-26T04:48:51.204Z,2.00
2022-11-26T04:51:19.086Z,2.10
2022-11-26T04:53:46.958Z,2.30
2022-11-26T04:56:14.811Z,2.20
2022-11-26T04:58:42.709Z,2.17
2022-11-26T05:01:11.965Z,2.60
2022-11-26T05:03:39.844Z,2.50
2022-11-26T05:06:08.280Z,3.10
2022-11-26T05:08:36.138Z,2.07
2022-11-26T05:11:04.045Z,2.33
2022-11-26T05:13:31.931Z,2.00
2022-11-26T05:15:59.820Z,2.10
2022-11-26T05:18:29.043Z,2.33
2022-11-26T05:20:56.937Z,2.30
2022-11-26T05:23:24.771Z,2.43
2022-11-26T05:25:52.667Z,2.17
2022-11-26T05:28:20.524Z,4.17
2022-11-26T05:30:48.366Z,4.40
2022-11-26T05:33:16.220Z,5.33
2022-11-26T05:35:45.390Z,5.20
2022-11-26T05:38:13.234Z,4.97
2022-11-26T05:40:41.157Z,4.50
2022-11-26T05:43:09.020Z,3.90
2022-11-26T05:45:36.989Z,4.23
2022-11-26T05:48:05.201Z,3.87
2022-11-26T05:50:33.632Z,4.20
2022-11-26T05:53:02.988Z,5.10
2022-11-26T05:55:31.050Z,4.40
2022-11-26T05:57:58.943Z,4.13
2022-11-26T06:00:26.836Z,4.93
2022-11-26T06:02:54.776Z,4.43
2022-11-26T06:05:23.097Z,3.80
2022-11-26T06:07:51.043Z,4.30
2022-11-26T06:10:20.545Z,4.30
2022-11-26T06:12:48.457Z,4.53
2022-11-26T06:15:16.479Z,4.07
2022-11-26T06:17:44.323Z,4.00
2022-11-26T06:20:13.645Z,3.80
2022-11-26T06:22:43.456Z,3.47
2022-11-26T06:25:13.424Z,3.33
2022-11-26T06:27:42.948Z,3.57
2022-11-26T06:30:12.703Z,3.43
2022-11-26T06:32:40.560Z,3.40
2022-11-26T06:35:09.020Z,3.73
2022-11-26T06:37:36.923Z,4.23
2022-11-26T06:40:05.411Z,3.30
2022-11-26T06:42:33.276Z,3.40
2022-11-26T06:45:02.499Z,3.37
2022-11-26T06:47:30.396Z,3.50
2022-11-26T06:49:58.270Z,3.10
2022-11-26T06:52:26.184Z,3.43
2022-11-26T06:54:54.113Z,3.93
2022-11-26T06:57:21.963Z,4.00
2022-11-26T06:59:49.802Z,4.33
2022-11-26T07:02:19.208Z,3.67
2022-11-26T07:04:47.100Z,3.90
2022-11-26T07:07:14.982Z,4.17
2022-11-26T07:09:43.033Z,4.30
2022-11-26T07:12:10.892Z,3.70
2022-11-26T07:14:39.005Z,4.60
2022-11-26T07:17:07.164Z,4.70
2022-11-26T07:19:36.382Z,3.90
2022-11-26T07:22:04.255Z,3.63
2022-11-26T07:24:32.182Z,4.17
2022-11-26T07:27:00.019Z,3.80
2022-11-26T07:29:28.039Z,4.07
2022-11-26T07:31:55.986Z,3.90
2022-11-26T07:34:23.923Z,3.53
2022-11-26T07:36:57.844Z,3.53
2022-11-26T07:39:26.255Z,4.57
2022-11-26T07:41:54.106Z,3.43
2022-11-26T07:44:21.972Z,3.80
2022-11-26T07:46:49.831Z,3.30
2022-11-26T07:49:17.715Z,3.40
2022-11-26T07:51:45.687Z,3.90
2022-11-26T07:54:14.934Z,5.50
2022-11-26T07:56:42.804Z,6.40
2022-11-26T07:59:11.752Z,5.73
2022-11-26T08:01:39.739Z,5.63
2022-11-26T08:04:08.099Z,4.70
2022-11-26T08:06:36.114Z,5.63
2022-11-26T08:09:05.172Z,5.77
2022-11-26T08:11:35.175Z,5.20
2022-11-26T08:14:05.302Z,5.10
2022-11-26T08:16:33.841Z,4.27
2022-11-26T08:19:04.210Z,4.10
2022-11-26T08:21:32.228Z,4.10
2022-11-26T08:24:00.318Z,4.13
2022-11-26T08:26:35.935Z,3.07
2022-11-26T08:29:07.836Z,3.37
2022-11-26T08:31:39.919Z,3.77
2022-11-26T08:34:13.693Z,3.90
2022-11-26T08:36:41.566Z,4.17
2022-11-26T08:39:10.874Z,3.77
2022-11-26T08:41:38.710Z,5.13
2022-11-26T08:44:08.560Z,4.23
2022-11-26T08:46:37.312Z,3.80
2022-11-26T08:49:05.872Z,3.30
2022-11-26T08:51:33.881Z,3.10
2022-11-26T08:54:02.142Z,3.50
2022-11-26T08:56:30.062Z,2.73
2022-11-26T08:58:57.923Z,3.20
2022-11-26T09:01:29.357Z,3.40
2022-11-26T09:03:59.491Z,4.03
2022-11-26T09:06:29.462Z,3.93
2022-11-26T09:09:17.404Z,3.30
2022-11-26T09:11:48.430Z,3.93
2022-11-26T09:14:18.611Z,3.70
2022-11-26T09:16:48.215Z,3.80
2022-11-26T09:19:16.743Z,3.40
2022-11-26T09:21:44.686Z,2.70
2022-11-26T09:24:12.836Z,2.67
2022-11-26T09:26:41.029Z,3.10
2022-11-26T09:29:08.990Z,3.40
2022-11-26T09:31:45.883Z,6.17
2022-11-26T09:34:24.692Z,6.90
2022-11-26T09:36:52.598Z,6.77
2022-11-26T09:39:20.635Z,7.03
2022-11-26T09:41:54.895Z,6.57
2022-11-26T09:44:35.301Z,7.03
2022-11-26T09:47:13.248Z,7.50
2022-11-26T09:49:51.119Z,7.13
2022-11-26T09:52:20.805Z,6.30
2022-11-26T09:54:51.352Z,6.73
2022-11-26T09:57:24.183Z,6.90
2022-11-26T09:59:54.889Z,7.20
2022-11-26T10:02:25.129Z,7.50
2022-11-26T10:04:54.577Z,7.27
2022-11-26T10:07:40.397Z,7.57
2022-11-26T10:10:16.286Z,6.60
2022-11-26T10:13:17.309Z,6.40
2022-11-26T10:15:51.883Z,6.60
2022-11-26T10:18:26.769Z,6.63
2022-11-26T10:21:04.261Z,7.63
2022-11-26T10:23:34.823Z,6.50
2022-11-26T10:26:08.975Z,7.30
2022-11-26T10:28:44.521Z,8.17
2022-11-26T10:31:19.585Z,7.53
2022-11-26T10:33:56.081Z,7.13
2022-11-26T10:36:35.851Z,6.67
2022-11-26T10:39:04.193Z,6.17
2022-11-26T10:41:36.174Z,7.10
2022-11-26T10:44:29.557Z,5.77
2022-11-26T10:46:57.608Z,6.53
2022-11-26T10:49:27.217Z,7.20
2022-11-26T10:51:59.336Z,6.30
2022-11-26T10:54:30.950Z,6.50
2022-11-26T10:57:05.323Z,6.57
2022-11-26T10:59:40.408Z,6.57
2022-11-26T11:02:30.220Z,6.00
2022-11-26T11:05:00.233Z,5.97
2022-11-26T11:07:41.588Z,6.30
2022-11-26T11:10:17.695Z,6.07
2022-11-26T11:12:50.567Z,6.37
2022-11-26T11:15:24.228Z,5.83
2022-11-26T11:17:57.737Z,6.27
2022-11-26T11:20:29.904Z,6.33
2022-11-26T11:23:06.274Z,6.40
2022-11-26T11:25:36.152Z,6.53
2022-11-26T11:28:14.250Z,6.33
2022-11-26T11:30:43.196Z,6.60
2022-11-26T11:33:18.710Z,6.90
2022-11-26T11:35:57.789Z,7.60
2022-11-26T11:38:29.423Z,7.10
2022-11-26T11:40:57.584Z,7.10
2022-11-26T11:43:26.838Z,6.70
2022-11-26T11:46:10.290Z,7.50
2022-11-26T11:48:49.650Z,6.73
2022-11-26T11:51:25.462Z,7.33
2022-11-26T11:54:04.654Z,6.20
2022-11-26T11:56:39.641Z,6.77
2022-11-26T11:59:36.954Z,6.30
2022-11-26T12:02:32.013Z,7.17
2022-11-26T12:05:17.317Z,7.60
2022-11-26T12:07:53.739Z,6.70
2022-11-26T12:10:35.172Z,7.40
2022-11-26T12:13:06.489Z,7.50
2022-11-26T12:15:39.303Z,7.67
2022-11-26T12:18:15.564Z,7.53
2022-11-26T12:20:48.759Z,7.40
2022-11-26T12:23:28.710Z,8.20
2022-11-26T12:26:02.896Z,8.70
2022-11-26T12:28:34.543Z,8.23
2022-11-26T12:31:06.713Z,8.73
2022-11-26T12:33:41.364Z,8.57
2022-11-26T12:36:17.336Z,9.60
2022-11-26T12:38:50.143Z,8.17
2022-11-26T12:41:22.328Z,8.77
2022-11-26T12:43:54.290Z,8.47
2022-11-26T12:46:28.017Z,8.43
2022-11-26T12:49:02.838Z,10.13
2022-11-26T12:51:37.780Z,8.40
2022-11-26T12:54:16.175Z,7.97
2022-11-26T12:56:54.957Z,7.87
2022-11-26T12:59:27.390Z,7.80
2022-11-26T13:01:55.382Z,7.70
2022-11-26T13:04:40.188Z,9.67
2022-11-26T13:07:23.826Z,8.60
2022-11-26T13:10:06.629Z,8.80
2022-11-26T13:12:45.366Z,9.30
2022-11-26T13:15:21.381Z,8.37
2022-11-26T13:17:50.755Z,9.33
2022-11-26T13:20:42.602Z,9.97
2022-11-26T13:23:29.899Z,9.00
2022-11-26T13:26:15.174Z,9.17
2022-11-26T13:29:03.610Z,8.83
2022-11-26T13:31:46.319Z,9.60
2022-11-26T13:34:27.990Z,9.50
2022-11-26T13:37:33.933Z,10.57
2022-11-26T13:40:23.089Z,9.70
2022-11-26T13:43:22.185Z,9.83
2022-11-26T13:46:09.291Z,9.60
2022-11-26T13:48:46.398Z,10.30
2022-11-26T13:51:21.588Z,10.17
2022-11-26T13:53:53.505Z,10.83
2022-11-26T13:56:24.922Z,10.30
2022-11-26T13:58:57.116Z,11.40
2022-11-26T14:01:33.043Z,11.37
2022-11-26T14:04:01.240Z,11.53
2022-11-26T14:06:29.181Z,12.00
2022-11-26T14:08:57.716Z,10.80
2022-11-26T14:11:57.185Z,9.77
2022-11-26T14:14:36.120Z,10.83
2022-11-26T14:17:16.764Z,10.50
2022-11-26T14:20:12.654Z,10.00
2022-11-26T14:22:40.606Z,10.90
2022-11-26T14:25:11.748Z,10.87
2022-11-26T14:27:42.974Z,10.90
2022-11-26T14:30:23.028Z,10.63
2022-11-26T14:32:59.188Z,11.07
2022-11-26T14:35:33.900Z,10.80
2022-11-26T14:38:04.323Z,11.17
2022-11-26T14:40:34.331Z,10.60
2022-11-26T14:43:16.754Z,10.87
2022-11-26T14:45:46.565Z,11.80
2022-11-26T14:48:24.843Z,11.40
2022-11-26T14:50:55.232Z,11.10
2022-11-26T14:53:26.359Z,11.60
2022-11-26T14:55:55.175Z,12.30
2022-11-26T14:58:30.876Z,11.17
2022-11-26T15:01:03.989Z,12.70
2022-11-26T15:03:33.941Z,13.17
2022-11-26T15:06:01.923Z,12.10
2022-11-26T15:08:29.785Z,12.40
2022-11-26T15:11:02.391Z,11.40
2022-11-26T15:13:33.663Z,12.60
2022-11-26T15:16:03.409Z,10.80
2022-11-26T15:18:35.050Z,10.67
2022-11-26T15:21:06.512Z,11.67
2022-11-26T15:23:39.273Z,11.03
2022-11-26T15:26:07.745Z,11.10
2022-11-26T15:28:40.918Z,12.87
2022-11-26T15:31:09.981Z,10.77
2022-11-26T15:33:40.828Z,11.50
2022-11-26T15:36:15.905Z,12.10
2022-11-26T15:39:02.919Z,11.27
2022-11-26T15:41:31.536Z,10.40
2022-11-26T15:44:01.332Z,11.97
2022-11-26T15:46:31.931Z,11.37
2022-11-26T15:49:04.281Z,10.80
2022-11-26T15:51:37.349Z,11.20
2022-11-26T15:54:07.180Z,12.87
2022-11-26T15:56:37.727Z,14.43
2022-11-26T15:59:15.006Z,13.57
2022-11-26T16:01:46.143Z,11.40
2022-11-26T16:04:43.281Z,12.07
2022-11-26T16:07:16.225Z,11.43
2022-11-26T16:09:45.268Z,13.80
2022-11-26T16:12:28.100Z,12.60
2022-11-26T16:15:18.950Z,13.20
2022-11-26T16:17:47.977Z,13.20
2022-11-26T16:20:21.949Z,13.13
2022-11-26T16:22:52.192Z,13.80
2022-11-26T16:25:25.654Z,13.10
2022-11-26T16:28:12.501Z,13.03
2022-11-26T16:30:42.510Z,12.20
2022-11-26T16:33:10.934Z,12.43
2022-11-26T16:35:46.408Z,14.30
2022-11-26T16:38:21.100Z,12.50
2022-11-26T16:40:49.112Z,12.60
2022-11-26T16:43:16.969Z,11.83
2022-11-26T16:45:45.225Z,12.73
2022-11-26T16:48:25.520Z,11.90
2022-11-26T16:50:55.425Z,11.33
2022-11-26T16:53:23.348Z,13.13
2022-11-26T16:55:52.541Z,13.87
2022-11-26T16:58:27.054Z,16.33
2022-11-26T17:00:55.226Z,14.13
2022-11-26T17:03:23.590Z,13.13
2022-11-26T17:05:55.987Z,13.60
2022-11-26T17:08:24.087Z,13.70
2022-11-26T17:10:52.038Z,12.23
2022-11-26T17:13:20.524Z,13.13
2022-11-26T17:15:49.267Z,12.33
2022-11-26T17:18:20.409Z,14.20
2022-11-26T17:20:48.724Z,13.67
2022-11-26T17:23:18.252Z,13.43
2022-11-26T17:25:47.746Z,13.27
2022-11-26T17:28:16.634Z,13.33
2022-11-26T17:30:45.779Z,13.03
2022-11-26T17:33:14.108Z,12.67
2022-11-26T17:35:42.060Z,13.63
2022-11-26T17:38:16.257Z,13.63
2022-11-26T17:40:46.234Z,13.60
2022-11-26T17:43:14.705Z,13.67
2022-11-26T17:45:42.980Z,13.70
2022-11-26T17:48:13.987Z,13.23
2022-11-26T17:50:42.706Z,12.70
2022-11-26T17:53:10.616Z,13.07
2022-11-26T17:55:39.169Z,12.87
2022-11-26T17:58:09.624Z,12.77
2022-11-26T18:00:37.541Z,12.20
2022-11-26T18:03:05.581Z,12.13
2022-11-26T18:05:35.795Z,13.60
2022-11-26T18:08:06.186Z,13.03
2022-11-26T18:10:34.046Z,14.13
2022-11-26T18:13:01.895Z,14.80
2022-11-26T18:15:31.169Z,13.80
2022-11-26T18:17:59.111Z,14.27
2022-11-26T18:20:29.118Z,14.13
2022-11-26T18:22:59.690Z,15.83
2022-11-26T18:25:28.354Z,14.43
2022-11-26T18:27:56.502Z,15.67
2022-11-26T18:30:24.746Z,16.77
2022-11-26T18:32:54.021Z,14.47
2022-11-26T18:35:22.848Z,16.03
2022-11-26T18:37:51.149Z,14.93
2022-11-26T18:40:19.108Z,16.57
2022-11-26T18:42:46.966Z,15.53
2022-11-26T18:45:16.447Z,15.20
2022-11-26T18:47:44.332Z,15.30
2022-11-26T18:50:14.456Z,14.20
2022-11-26T18:52:42.288Z,15.40
2022-11-26T18:55:10.607Z,15.10
2022-11-26T18:57:38.486Z,15.37
2022-11-26T19:00:08.984Z,15.93
2022-11-26T19:02:37.365Z,16.27
2022-11-26T19:05:05.861Z,13.73
2022-11-26T19:07:35.119Z,14.07
2022-11-26T19:10:03.033Z,16.07
2022-11-26T19:12:30.907Z,14.10
2022-11-26T19:14:58.832Z,14.70
2022-11-26T19:17:26.691Z,16.40
2022-11-26T19:19:54.558Z,16.60
2022-11-26T19:22:22.498Z,14.97
2022-11-26T19:24:51.718Z,14.53
2022-11-26T19:27:19.578Z,14.77
2022-11-26T19:29:47.511Z,13.70
2022-11-26T19:32:15.384Z,14.00
2022-11-26T19:34:43.304Z,13.53
2022-11-26T19:37:11.148Z,13.20
2022-11-26T19:39:39.446Z,12.43
2022-11-26T19:42:08.835Z,13.10
2022-11-26T19:44:37.447Z,13.10
2022-11-26T19:47:05.488Z,12.00
2022-11-26T19:49:33.986Z,13.27
2022-11-26T19:52:01.912Z,13.67
2022-11-26T19:54:29.770Z,13.93
2022-11-26T19:56:57.623Z,13.80
2022-11-26T19:59:26.810Z,13.97
2022-11-26T20:01:55.881Z,15.30
2022-11-26T20:04:27.371Z,12.50
2022-11-26T20:06:55.335Z,13.50
2022-11-26T20:09:23.282Z,12.13
2022-11-26T20:11:51.134Z,12.50
2022-11-26T20:14:19.013Z,12.90
2022-11-26T20:16:48.345Z,11.60
2022-11-26T20:19:16.590Z,11.60
2022-11-26T20:21:44.544Z,12.30
2022-11-26T20:24:15.849Z,12.60
2022-11-26T20:26:47.034Z,13.50
2022-11-26T20:29:16.968Z,12.20
2022-11-26T20:31:46.713Z,13.60
2022-11-26T20:34:17.172Z,13.93
2022-11-26T20:36:45.732Z,14.67
2022-11-26T20:39:15.160Z,12.97
2022-11-26T20:41:43.678Z,14.40
2022-11-26T20:44:12.687Z,13.03
2022-11-26T20:46:41.356Z,12.43
2022-11-26T20:49:10.872Z,12.67
2022-11-26T20:51:40.676Z,11.90
2022-11-26T20:54:08.639Z,11.87
2022-11-26T20:56:36.531Z,11.73
2022-11-26T20:59:04.419Z,10.73
2022-11-26T21:01:32.768Z,8.80
2022-11-26T21:04:00.746Z,9.17
2022-11-26T21:06:30.665Z,9.60
2022-11-26T21:09:01.560Z,9.97
2022-11-26T21:11:29.562Z,10.33
2022-11-26T21:13:58.841Z,10.93
2022-11-26T21:16:27.159Z,10.30
2022-11-26T21:18:55.657Z,9.63
2022-11-26T21:21:24.799Z,12.20
2022-11-26T21:23:52.659Z,12.53
2022-11-26T21:26:24.212Z,12.00
2022-11-26T21:28:52.527Z,11.30
2022-11-26T21:31:21.554Z,12.60
2022-11-26T21:33:55.189Z,11.90
2022-11-26T21:36:23.557Z,13.37
2022-11-26T21:38:51.781Z,12.63
2022-11-26T21:41:21.812Z,11.77
2022-11-26T21:43:50.244Z,11.13
2022-11-26T21:46:21.302Z,11.70
2022-11-26T21:48:49.541Z,10.63
2022-11-26T21:51:18.698Z,11.40
2022-11-26T21:53:47.175Z,12.00
2022-11-26T21:56:17.268Z,10.30
2022-11-26T21:58:46.723Z,10.43
2022-11-26T22:01:15.796Z,10.40
2022-11-26T22:03:45.502Z,10.30
2022-11-26T22:06:13.475Z,10.97
2022-11-26T22:08:41.985Z,10.80
2022-11-26T22:11:10.846Z,10.30
2022-11-26T22:13:39.633Z,10.30
2022-11-26T22:16:10.575Z,11.10
2022-11-26T22:18:38.865Z,10.47
2022-11-26T22:21:08.871Z,10.30
2022-11-26T22:23:36.793Z,10.70
2022-11-26T22:26:05.102Z,11.50
2022-11-26T22:28:33.024Z,10.50
2022-11-26T22:31:00.963Z,11.20
2022-11-26T22:33:30.199Z,11.27
2022-11-26T22:36:01.839Z,10.60
2022-11-26T22:38:29.698Z,10.67
2022-11-26T22:41:01.912Z,9.33
2022-11-26T22:43:29.962Z,9.77
2022-11-26T22:45:57.857Z,9.80
2022-11-26T22:48:25.971Z,10.93
2022-11-26T22:50:55.840Z,10.23
2022-11-26T22:53:24.406Z,9.80
2022-11-26T22:55:53.566Z,8.40
2022-11-26T22:58:22.395Z,9.20
2022-11-26T23:00:52.041Z,8.47
2022-11-26T23:03:21.481Z,8.83
2022-11-26T23:05:49.435Z,8.97
2022-11-26T23:08:18.896Z,10.27
2022-11-26T23:10:48.394Z,8.40
2022-11-26T23:13:17.738Z,8.80
2022-11-26T23:15:47.404Z,9.47
2022-11-26T23:18:16.830Z,8.00
2022-11-26T23:20:44.865Z,8.47
2022-11-26T23:23:14.396Z,7.77
2022-11-26T23:25:43.688Z,6.33
2022-11-26T23:28:11.581Z,6.87
2022-11-26T23:30:39.451Z,6.53
2022-11-26T23:33:07.312Z,5.17
2022-11-26T23:35:35.169Z,6.60
2022-11-26T23:38:03.573Z,5.93
2022-11-26T23:40:31.448Z,6.53
2022-11-26T23:43:03.495Z,6.33
2022-11-26T23:45:35.156Z,6.57
2022-11-26T23:48:03.030Z,7.50
2022-11-26T23:50:30.906Z,8.97
2022-11-26T23:52:58.735Z,8.20
2022-11-26T23:55:26.614Z,8.10
2022-11-26T23:57:54.449Z,8.23
